Gilmore, Missouri
Current Conditions -  °F | °C
As of 3:54 PM on Thursday 23 Oct 2014 (Local Time) from KSUS Reporting Station
Broken Clouds Broken Clouds  
Wind Chill: 65°   Ceiling: 15000
Heat Index: 65°   Visibility: 10mi
Dew Point: 47°   Wind: 0mph
Humidity: 52%   Direction: NA
Pressure: 30.09"   Gusts: NA
Location:  38.7993°N, 90.8471°W
Report Text: KSUS 232054Z 00000KT 10SM BKN150 18/08 A3009 RMK AO2 SLP189 T01830083 56024
Loading
Personal Weather Stations






























Interactive Weather Map
Tropical Storm Tracking
New forecast layout! Learn more

10-Day Weather Forecast

Advertisements
Track Severe Weather on mobile